Time;durP1;ratioP1;P1;durP2;ratioP2;P2;SDS_P1;SDS_P2;PMS_P1;PMS_P2;Temp;Humidity;BMP_temperature;BMP_pressure;BME280_temperature;BME280_humidity;BME280_pressure;Samples;Min_cycle;Max_cycle;Signal;HPM_P1;HPM_P2
2024/03/28 00:01:07;;;;;;;11.77;8.27;;;8.90;99.90;;;;;;5055460;28;20029;-81
2024/03/28 00:03:33;;;;;;;16.55;9.20;;;8.80;99.90;;;;;;5056073;28;20045;-81
2024/03/28 00:06:00;;;;;;;13.05;8.80;;;8.90;99.90;;;;;;5056398;28;20098;-81
2024/03/28 00:08:27;;;;;;;13.70;9.13;;;8.80;99.90;;;;;;5058625;28;20033;-83
2024/03/28 00:10:53;;;;;;;14.23;8.43;;;8.80;99.90;;;;;;5059714;28;20524;-81
2024/03/28 00:13:19;;;;;;;11.30;7.95;;;8.80;99.90;;;;;;5041842;28;20102;-81
2024/03/28 00:15:45;;;;;;;12.18;8.48;;;8.80;99.90;;;;;;5058301;28;20051;-83
2024/03/28 00:18:11;;;;;;;13.77;8.95;;;8.80;99.90;;;;;;5058513;28;20412;-81
2024/03/28 00:20:37;;;;;;;11.65;8.05;;;8.80;99.90;;;;;;5057479;28;20036;-81
2024/03/28 00:23:03;;;;;;;12.02;8.45;;;8.80;99.90;;;;;;5058009;28;20037;-81
2024/03/28 00:25:32;;;;;;;13.20;8.65;;;8.80;99.90;;;;;;5057331;28;20033;-81
2024/03/28 00:28:01;;;;;;;14.85;8.65;;;8.80;99.90;;;;;;5058990;28;20037;-82
2024/03/28 00:30:27;;;;;;;11.68;8.35;;;8.90;99.90;;;;;;5058925;28;20043;-81
2024/03/28 00:32:52;;;;;;;12.70;8.55;;;8.80;99.90;;;;;;5042750;28;20458;-82
2024/03/28 00:35:18;;;;;;;11.85;8.35;;;8.80;99.90;;;;;;5058716;28;20052;-81
2024/03/28 00:37:44;;;;;;;11.38;8.25;;;8.80;99.90;;;;;;5042774;28;20037;-82
2024/03/28 00:40:11;;;;;;;14.18;9.32;;;8.80;99.90;;;;;;5058506;28;20116;-83
2024/03/28 00:42:37;;;;;;;13.02;8.73;;;8.80;99.90;;;;;;5059204;28;20421;-81
2024/03/28 00:45:03;;;;;;;13.25;9.07;;;8.70;99.90;;;;;;5059526;28;20045;-81
2024/03/28 00:47:29;;;;;;;15.10;9.18;;;8.70;99.90;;;;;;5059992;28;20116;-81
2024/03/28 00:49:55;;;;;;;12.55;8.25;;;8.70;99.90;;;;;;5042053;28;20064;-82
2024/03/28 00:52:25;;;;;;;14.32;9.65;;;8.80;99.90;;;;;;5059531;28;20109;-81
2024/03/28 00:54:51;;;;;;;15.95;9.57;;;8.80;99.90;;;;;;5061236;28;20066;-82
2024/03/28 00:57:16;;;;;;;14.07;9.05;;;8.80;99.90;;;;;;5061062;28;20123;-81
2024/03/28 00:59:42;;;;;;;14.90;9.48;;;8.70;99.90;;;;;;5059446;28;20408;-82
2024/03/28 01:02:08;;;;;;;13.00;9.82;;;8.70;99.90;;;;;;5059462;28;20040;-81
2024/03/28 01:04:33;;;;;;;13.90;9.45;;;8.70;99.90;;;;;;5060528;28;20037;-81
2024/03/28 01:06:59;;;;;;;16.77;9.57;;;8.70;99.90;;;;;;5062094;28;20068;-82
2024/03/28 01:09:24;;;;;;;16.13;9.70;;;8.60;99.90;;;;;;5059299;28;20064;-82
2024/03/28 01:11:50;;;;;;;13.52;9.50;;;8.60;99.90;;;;;;5059944;28;20037;-83
2024/03/28 01:14:16;;;;;;;14.70;10.13;;;8.60;99.90;;;;;;5057994;28;20481;-81
2024/03/28 01:16:41;;;;;;;17.08;10.82;;;8.60;99.90;;;;;;5041259;28;20046;-81
2024/03/28 01:19:07;;;;;;;14.13;9.88;;;8.50;99.90;;;;;;5059518;28;20036;-82
2024/03/28 01:21:32;;;;;;;16.30;10.13;;;8.60;99.90;;;;;;5059649;28;20033;-83
2024/03/28 01:23:58;;;;;;;19.77;11.00;;;8.50;99.90;;;;;;5058355;28;20036;-81
2024/03/28 01:26:24;;;;;;;15.70;11.05;;;8.50;99.90;;;;;;5056362;28;20115;-81
2024/03/28 01:28:49;;;;;;;19.95;11.50;;;8.50;99.90;;;;;;5039919;28;20480;-81
2024/03/28 01:31:15;;;;;;;16.33;10.80;;;8.50;99.90;;;;;;5055536;28;20409;-82
2024/03/28 01:33:40;;;;;;;16.77;10.63;;;8.50;99.90;;;;;;5058715;28;20049;-83
2024/03/28 01:36:06;;;;;;;14.55;10.68;;;8.50;99.90;;;;;;5061610;28;20081;-81
2024/03/28 01:38:32;;;;;;;15.43;10.25;;;8.50;99.90;;;;;;5059668;28;20098;-80
2024/03/28 01:40:57;;;;;;;18.60;11.50;;;8.50;99.90;;;;;;5058988;28;20067;-81
2024/03/28 01:43:23;;;;;;;16.45;11.48;;;8.50;99.90;;;;;;5059019;28;20071;-82
2024/03/28 01:45:50;;;;;;;17.33;11.85;;;8.40;99.90;;;;;;5060298;28;20037;-82
2024/03/28 01:48:16;;;;;;;15.48;11.07;;;8.50;99.90;;;;;;5058668;28;20041;-81
2024/03/28 01:50:42;;;;;;;15.35;10.60;;;8.40;99.90;;;;;;5043391;28;20040;-82
2024/03/28 01:53:08;;;;;;;17.58;11.93;;;8.40;99.90;;;;;;5061243;28;20136;-81
2024/03/28 01:55:34;;;;;;;18.30;11.93;;;8.40;99.90;;;;;;5062383;28;20049;-81
2024/03/28 01:58:01;;;;;;;18.60;12.00;;;8.40;99.90;;;;;;5062092;28;20040;-81
2024/03/28 02:00:27;;;;;;;20.65;12.48;;;8.40;99.90;;;;;;5059731;28;20547;-82
2024/03/28 02:02:56;;;;;;;16.75;11.52;;;8.40;99.90;;;;;;5059565;28;20094;-81
2024/03/28 02:05:23;;;;;;;18.73;11.65;;;8.30;99.90;;;;;;5044131;28;20051;-81
2024/03/28 02:07:48;;;;;;;18.75;12.02;;;8.30;99.90;;;;;;5044467;28;20163;-81
2024/03/28 02:10:14;;;;;;;16.88;12.20;;;8.30;99.90;;;;;;5059706;28;20044;-81
2024/03/28 02:12:40;;;;;;;20.65;13.70;;;8.30;99.90;;;;;;5042539;28;20520;-81
2024/03/28 02:15:07;;;;;;;18.80;12.93;;;8.30;99.90;;;;;;5060183;28;20114;-82
2024/03/28 02:17:32;;;;;;;19.90;13.68;;;8.40;99.90;;;;;;5059448;28;20045;-81
2024/03/28 02:19:58;;;;;;;21.90;14.30;;;8.40;99.90;;;;;;5042141;28;20040;-81
2024/03/28 02:22:24;;;;;;;17.90;12.85;;;8.40;99.90;;;;;;5059398;28;20109;-81
2024/03/28 02:24:52;;;;;;;20.23;14.18;;;8.40;99.90;;;;;;5060024;28;20044;-82
2024/03/28 02:27:17;;;;;;;22.75;14.88;;;8.20;99.90;;;;;;5060994;28;20080;-82
2024/03/28 02:29:43;;;;;;;24.02;15.27;;;8.30;99.90;;;;;;5059321;28;20052;-81
2024/03/28 02:32:08;;;;;;;21.88;16.23;;;8.30;99.90;;;;;;5061432;28;20041;-81
2024/03/28 02:34:34;;;;;;;23.33;14.48;;;8.30;99.90;;;;;;5042639;28;20421;-81
2024/03/28 02:37:00;;;;;;;23.10;15.05;;;8.20;99.90;;;;;;5060901;28;20051;-81
2024/03/28 02:39:26;;;;;;;22.77;14.52;;;8.20;99.90;;;;;;5062294;28;20043;-82
2024/03/28 02:41:51;;;;;;;22.75;15.27;;;8.20;99.90;;;;;;5064067;28;20060;-82
2024/03/28 02:44:17;;;;;;;20.65;14.07;;;8.20;99.90;;;;;;5044466;28;20128;-81
2024/03/28 02:46:43;;;;;;;22.25;14.07;;;8.10;99.90;;;;;;5063308;28;20037;-81
2024/03/28 02:49:09;;;;;;;21.48;13.57;;;8.20;99.90;;;;;;5062946;28;20033;-82
2024/03/28 02:51:34;;;;;;;17.48;12.85;;;8.10;99.90;;;;;;5060337;28;20041;-81
2024/03/28 02:54:00;;;;;;;21.52;13.43;;;8.10;99.90;;;;;;5060840;28;20404;-82
2024/03/28 02:56:25;;;;;;;18.98;12.02;;;8.10;99.90;;;;;;5059709;28;20037;-80
2024/03/28 02:58:51;;;;;;;19.40;12.50;;;8.10;99.90;;;;;;5058718;28;20041;-81
2024/03/28 03:01:17;;;;;;;19.33;13.40;;;8.20;99.90;;;;;;5060308;28;20072;-81
2024/03/28 03:03:42;;;;;;;24.25;14.77;;;8.20;99.90;;;;;;5042396;28;20055;-82
2024/03/28 03:06:08;;;;;;;21.15;13.68;;;8.20;99.90;;;;;;5058766;28;20079;-82
2024/03/28 03:08:34;;;;;;;21.52;13.18;;;8.10;99.90;;;;;;5051483;28;20088;-82
2024/03/28 03:10:59;;;;;;;20.95;12.65;;;8.10;99.90;;;;;;5031240;28;20052;-81
2024/03/28 03:13:25;;;;;;;20.50;13.10;;;8.10;99.90;;;;;;5045849;28;20034;-81
2024/03/28 03:15:56;;;;;;;23.48;13.43;;;8.00;99.90;;;;;;5040352;28;20067;-81
2024/03/28 03:18:26;;;;;;;21.92;13.82;;;8.00;99.90;;;;;;5020818;28;20052;-81
2024/03/28 03:21:04;;;;;;;19.45;13.55;;;8.00;99.90;;;;;;5037789;28;20049;-81
2024/03/28 03:23:37;;;;;;;21.55;13.07;;;8.00;99.90;;;;;;5038263;28;20527;-81
2024/03/28 03:26:19;;;;;;;24.40;13.65;;;8.00;99.90;;;;;;5038289;28;20493;-81
2024/03/28 03:34:35;;;;;;;24.60;14.20;;;8.00;99.90;;;;;;5044205;28;20037;-81
2024/03/28 03:37:08;;;;;;;21.83;14.07;;;7.90;99.90;;;;;;5044204;28;20097;-81
2024/03/28 03:39:34;;;;;;;22.00;14.63;;;7.90;99.90;;;;;;5035897;28;20043;-81
2024/03/28 03:41:59;;;;;;;27.55;15.98;;;7.90;99.90;;;;;;5054645;28;20037;-81
2024/03/28 03:44:25;;;;;;;25.08;15.90;;;7.90;99.90;;;;;;5062469;28;20497;-81
2024/03/28 03:46:51;;;;;;;24.35;13.80;;;7.90;99.90;;;;;;5061434;28;20033;-81
2024/03/28 03:49:16;;;;;;;25.98;15.75;;;7.90;99.90;;;;;;5057534;28;20554;-83
2024/03/28 03:51:42;;;;;;;24.83;15.27;;;7.90;99.90;;;;;;5040709;28;20098;-81
2024/03/28 03:54:08;;;;;;;27.92;16.02;;;7.80;99.90;;;;;;5055100;28;20041;-81
2024/03/28 03:56:35;;;;;;;27.42;15.90;;;7.80;99.90;;;;;;5040459;28;20049;-82
2024/03/28 03:59:02;;;;;;;28.27;16.60;;;7.80;99.90;;;;;;5055695;28;20040;-83
2024/03/28 04:01:27;;;;;;;26.27;16.40;;;7.80;99.90;;;;;;5046905;28;20140;-81
2024/03/28 04:03:53;;;;;;;28.73;17.95;;;7.80;99.90;;;;;;5018691;28;20073;-81
2024/03/28 04:06:19;;;;;;;30.73;16.85;;;7.80;99.90;;;;;;5036833;28;20069;-81
2024/03/28 04:08:45;;;;;;;26.02;17.25;;;7.80;99.90;;;;;;5019017;28;20064;-81
2024/03/28 04:11:13;;;;;;;28.33;16.45;;;7.90;99.90;;;;;;5036476;28;20046;-82
2024/03/28 04:13:38;;;;;;;30.33;16.40;;;7.90;99.90;;;;;;5042476;28;20042;-81
2024/03/28 04:16:05;;;;;;;28.48;17.63;;;7.90;99.90;;;;;;5024482;28;20539;-81
2024/03/28 04:18:30;;;;;;;29.40;17.10;;;7.80;99.90;;;;;;5040236;28;20037;-81
2024/03/28 04:20:56;;;;;;;30.92;19.52;;;7.80;99.90;;;;;;5040402;28;20048;-81
2024/03/28 04:23:22;;;;;;;27.02;17.77;;;7.70;99.90;;;;;;5021800;28;20037;-81
2024/03/28 04:25:58;;;;;;;31.33;18.02;;;7.80;99.90;;;;;;5022347;28;20051;-81
2024/03/28 04:28:24;;;;;;;30.15;18.40;;;7.90;99.90;;;;;;5036391;28;20037;-81
2024/03/28 04:30:53;;;;;;;32.97;18.55;;;7.80;99.90;;;;;;5021099;28;20413;-81
2024/03/28 04:33:19;;;;;;;30.27;18.23;;;7.80;99.90;;;;;;5021075;28;20427;-81
2024/03/28 04:35:48;;;;;;;31.30;18.83;;;7.80;99.90;;;;;;5037883;28;20037;-80
2024/03/28 04:38:14;;;;;;;36.00;20.15;;;7.80;99.90;;;;;;5036112;28;20037;-80
2024/03/28 04:40:40;;;;;;;32.45;18.05;;;7.80;99.90;;;;;;5036548;28;20040;-81
2024/03/28 04:43:06;;;;;;;31.70;18.60;;;7.80;99.90;;;;;;5020551;28;20501;-82
2024/03/28 04:45:31;;;;;;;33.08;20.17;;;7.80;99.90;;;;;;5038128;28;20045;-81
2024/03/28 04:47:57;;;;;;;31.60;19.98;;;7.80;99.90;;;;;;5020583;28;20076;-81
2024/03/28 04:50:23;;;;;;;34.35;20.52;;;7.70;99.90;;;;;;5037531;28;20046;-81
2024/03/28 04:52:49;;;;;;;37.13;21.50;;;7.70;99.90;;;;;;5036792;28;20037;-81
2024/03/28 04:55:14;;;;;;;33.72;21.25;;;7.80;99.90;;;;;;5038474;28;20057;-81
2024/03/28 04:57:40;;;;;;;31.90;18.45;;;7.80;99.90;;;;;;5036487;28;20044;-81
2024/03/28 05:00:08;;;;;;;33.47;19.73;;;7.80;99.90;;;;;;5038215;28;20168;-82
2024/03/28 05:02:37;;;;;;;36.42;20.27;;;7.80;99.90;;;;;;5026966;28;20049;-81
2024/03/28 05:05:06;;;;;;;33.83;20.02;;;7.80;99.90;;;;;;5048877;28;20037;-82
2024/03/28 05:07:32;;;;;;;34.53;20.63;;;7.70;99.90;;;;;;5048222;28;20047;-83
2024/03/28 05:09:58;;;;;;;35.75;20.60;;;7.70;99.90;;;;;;5029111;28;20069;-82
2024/03/28 05:12:23;;;;;;;34.17;19.35;;;7.80;99.90;;;;;;5048676;28;20041;-81
2024/03/28 05:14:50;;;;;;;34.08;20.15;;;7.70;99.90;;;;;;5040539;28;20567;-83
2024/03/28 05:17:15;;;;;;;32.92;20.65;;;7.70;99.90;;;;;;5021365;28;20104;-83
2024/03/28 05:19:41;;;;;;;35.80;21.20;;;7.70;99.90;;;;;;5036649;28;20385;-83
2024/03/28 05:22:10;;;;;;;32.20;18.92;;;7.70;99.90;;;;;;5020534;28;20042;-81
2024/03/28 05:24:35;;;;;;;32.47;19.67;;;7.70;99.90;;;;;;5038246;28;20030;-82
2024/03/28 05:27:02;;;;;;;37.72;20.42;;;7.70;99.90;;;;;;5039117;28;20033;-82
2024/03/28 05:29:28;;;;;;;33.90;20.42;;;7.70;99.90;;;;;;5034654;28;20052;-82
2024/03/28 05:31:54;;;;;;;36.08;21.45;;;7.70;99.90;;;;;;5034920;28;20052;-83
2024/03/28 05:34:20;;;;;;;36.65;20.33;;;7.70;99.90;;;;;;5034534;28;20041;-83
2024/03/28 05:36:46;;;;;;;36.90;21.73;;;7.70;99.90;;;;;;5034369;28;20083;-82
2024/03/28 05:39:14;;;;;;;35.30;20.95;;;7.70;99.90;;;;;;5064252;22;20060;-72
2024/03/28 05:41:40;;;;;;;35.83;21.60;;;7.70;99.90;;;;;;5111731;28;20051;-72
2024/03/28 05:44:06;;;;;;;41.95;22.83;;;7.70;99.90;;;;;;5111301;28;20161;-72
2024/03/28 05:46:32;;;;;;;35.42;20.67;;;7.60;99.90;;;;;;5110424;28;20060;-71
2024/03/28 05:48:57;;;;;;;37.40;20.90;;;7.60;99.90;;;;;;5111569;28;20139;-72
2024/03/28 05:51:23;;;;;;;40.58;22.77;;;7.60;99.90;;;;;;5111302;28;20039;-72
2024/03/28 05:53:49;;;;;;;38.38;23.25;;;7.60;99.90;;;;;;5110972;28;20062;-71
2024/03/28 05:56:15;;;;;;;41.03;23.27;;;7.60;99.90;;;;;;5111651;28;20122;-71
2024/03/28 05:58:41;;;;;;;37.90;21.42;;;7.70;99.90;;;;;;5111680;28;20380;-71
2024/03/28 06:01:06;;;;;;;37.65;22.33;;;7.70;99.90;;;;;;5111079;28;20046;-71
2024/03/28 06:03:32;;;;;;;36.75;20.73;;;7.70;99.90;;;;;;5111036;28;20043;-71
2024/03/28 06:05:58;;;;;;;39.88;23.45;;;7.60;99.90;;;;;;5111395;28;20487;-71
2024/03/28 06:08:23;;;;;;;36.05;20.83;;;7.70;99.90;;;;;;5110883;28;20048;-71
2024/03/28 06:10:49;;;;;;;38.20;21.17;;;7.60;99.90;;;;;;5111235;28;20047;-71
2024/03/28 06:13:17;;;;;;;39.42;22.55;;;7.60;99.90;;;;;;5110897;28;20046;-71
2024/03/28 06:15:43;;;;;;;34.35;21.70;;;7.60;99.90;;;;;;5111262;28;20465;-71
2024/03/28 06:18:11;;;;;;;38.78;21.48;;;7.60;99.90;;;;;;5111378;28;20114;-71
2024/03/28 06:20:37;;;;;;;39.70;21.58;;;7.70;99.90;;;;;;5113968;28;20048;-71
2024/03/28 06:23:03;;;;;;;43.38;23.17;;;7.70;99.90;;;;;;5113339;28;20046;-72
2024/03/28 06:25:29;;;;;;;39.92;21.35;;;7.70;99.90;;;;;;5114965;28;20036;-71
2024/03/28 06:27:54;;;;;;;38.75;21.45;;;7.70;99.90;;;;;;5115006;28;20518;-71
2024/03/28 06:30:26;;;;;;;46.83;22.45;;;7.60;99.90;;;;;;5114709;28;20046;-71
2024/03/28 06:32:52;;;;;;;44.53;21.42;;;7.70;99.90;;;;;;5113127;28;20120;-71
2024/03/28 06:35:17;;;;;;;38.95;20.90;;;7.80;99.90;;;;;;5114616;28;20534;-71
2024/03/28 06:37:43;;;;;;;40.00;22.42;;;7.70;99.90;;;;;;5113520;28;20044;-71
2024/03/28 06:40:10;;;;;;;46.83;23.95;;;7.80;99.90;;;;;;5114294;28;20043;-71
2024/03/28 06:42:36;;;;;;;38.83;22.98;;;7.90;99.90;;;;;;5114233;27;20036;-71
2024/03/28 06:45:01;;;;;;;47.15;24.35;;;7.90;99.90;;;;;;5114339;28;20191;-71
2024/03/28 06:47:27;;;;;;;41.33;23.10;;;7.90;99.90;;;;;;5112997;28;20046;-71
2024/03/28 06:49:53;;;;;;;44.45;22.75;;;7.90;99.90;;;;;;5114059;28;20031;-71
2024/03/28 06:52:18;;;;;;;40.35;24.40;;;7.80;99.90;;;;;;5114185;28;20035;-71
2024/03/28 06:54:44;;;;;;;44.97;24.52;;;7.90;99.90;;;;;;5114371;28;20044;-71
2024/03/28 06:57:10;;;;;;;42.88;23.05;;;7.90;99.90;;;;;;5114260;28;20088;-71
2024/03/28 06:59:36;;;;;;;47.70;24.40;;;7.90;99.90;;;;;;5113873;28;20533;-71
2024/03/28 07:02:02;;;;;;;40.63;24.48;;;8.00;99.90;;;;;;5114372;28;20032;-72
2024/03/28 07:04:27;;;;;;;42.90;23.67;;;8.00;99.90;;;;;;5113729;28;20040;-72
2024/03/28 07:06:54;;;;;;;41.50;24.88;;;8.00;99.90;;;;;;5114110;28;20031;-71
2024/03/28 07:09:21;;;;;;;42.30;24.65;;;8.10;99.90;;;;;;5114024;28;20031;-72
2024/03/28 07:11:46;;;;;;;42.13;23.27;;;8.10;99.90;;;;;;5112946;28;20048;-72
2024/03/28 07:14:14;;;;;;;43.47;23.13;;;8.10;99.90;;;;;;5113550;27;20040;-72
2024/03/28 07:16:40;;;;;;;43.20;24.15;;;8.10;99.90;;;;;;5114016;28;20071;-72
2024/03/28 07:19:05;;;;;;;43.22;24.27;;;8.10;99.90;;;;;;5113449;28;20526;-72
2024/03/28 07:21:31;;;;;;;45.95;25.55;;;8.20;99.90;;;;;;5114045;28;20071;-72
2024/03/28 07:23:57;;;;;;;43.03;24.95;;;8.20;99.90;;;;;;5113567;28;20047;-72
2024/03/28 07:26:22;;;;;;;40.97;23.40;;;8.30;99.90;;;;;;5109732;28;20063;-72
2024/03/28 07:28:48;;;;;;;47.05;24.95;;;8.30;99.90;;;;;;5096142;28;20036;-72
2024/03/28 07:31:14;;;;;;;43.95;23.75;;;8.20;99.90;;;;;;5092631;28;20042;-72
2024/03/28 07:33:39;;;;;;;42.25;24.67;;;8.30;99.90;;;;;;5093072;28;20123;-72
2024/03/28 07:36:05;;;;;;;44.00;23.63;;;8.30;99.90;;;;;;5103469;28;20042;-72
2024/03/28 07:38:31;;;;;;;41.75;24.08;;;8.40;99.90;;;;;;5106250;28;20042;-72
2024/03/28 07:40:57;;;;;;;42.47;24.08;;;8.50;99.90;;;;;;5113097;28;20043;-72
2024/03/28 07:43:23;;;;;;;43.65;23.55;;;8.50;99.90;;;;;;5113036;28;20032;-72
2024/03/28 07:45:48;;;;;;;42.33;24.90;;;8.50;99.90;;;;;;5113492;28;20091;-72
2024/03/28 07:48:15;;;;;;;42.55;22.90;;;8.60;99.90;;;;;;5112301;28;20488;-72
2024/03/28 07:50:40;;;;;;;43.15;23.48;;;8.70;99.90;;;;;;5111943;28;20040;-72
2024/03/28 07:53:06;;;;;;;38.13;21.88;;;8.70;99.90;;;;;;5102857;28;20522;-72
2024/03/28 07:55:32;;;;;;;36.95;21.48;;;8.80;99.90;;;;;;5092912;28;20047;-72
2024/03/28 07:57:57;;;;;;;40.83;21.67;;;8.80;99.90;;;;;;5092884;28;20043;-72
2024/03/28 08:00:23;;;;;;;39.63;22.30;;;8.80;99.90;;;;;;5092400;28;20036;-72
2024/03/28 08:02:49;;;;;;;37.17;21.55;;;8.90;99.90;;;;;;5092108;28;20040;-72
2024/03/28 08:05:17;;;;;;;41.10;23.42;;;9.00;99.90;;;;;;5091309;28;20074;-72
2024/03/28 08:07:44;;;;;;;36.45;20.58;;;9.10;99.90;;;;;;5092800;28;20036;-72
2024/03/28 08:10:10;;;;;;;37.15;20.92;;;9.10;99.90;;;;;;5094895;28;20487;-71
2024/03/28 08:12:39;;;;;;;42.05;22.63;;;9.20;99.90;;;;;;5101985;28;20499;-71
2024/03/28 08:15:09;;;;;;;39.53;22.10;;;9.10;99.90;;;;;;5112863;28;20039;-70
2024/03/28 08:17:37;;;;;;;37.85;22.20;;;9.20;99.90;;;;;;5112740;28;20128;-71
2024/03/28 08:20:15;;;;;;;35.63;20.42;;;9.20;99.90;;;;;;5112535;28;20043;-69
2024/03/28 08:22:41;;;;;;;37.58;20.27;;;9.30;99.90;;;;;;5112293;28;20035;-70
2024/03/28 08:25:06;;;;;;;34.55;20.17;;;9.40;99.90;;;;;;5112666;28;20039;-69
2024/03/28 08:27:32;;;;;;;32.50;18.35;;;9.70;99.90;;;;;;5112477;28;20181;-73
2024/03/28 08:29:58;;;;;;;34.17;19.42;;;9.90;99.90;;;;;;5111856;28;20050;-70
2024/03/28 08:32:23;;;;;;;32.53;17.60;;;10.00;99.90;;;;;;5112307;28;20035;-71
2024/03/28 08:34:49;;;;;;;30.90;17.35;;;10.10;99.90;;;;;;5112650;28;20463;-70
2024/03/28 08:37:14;;;;;;;35.15;18.02;;;10.20;99.90;;;;;;5112632;28;20035;-72
2024/03/28 08:39:40;;;;;;;29.33;17.23;;;10.40;99.90;;;;;;5111964;28;20040;-70
2024/03/28 08:42:06;;;;;;;26.40;16.52;;;10.40;99.90;;;;;;5110575;28;20491;-70
2024/03/28 08:44:32;;;;;;;26.60;15.90;;;10.40;99.90;;;;;;5111866;28;20032;-72
2024/03/28 08:46:59;;;;;;;28.15;16.30;;;10.40;99.90;;;;;;5112520;28;20108;-70
2024/03/28 08:49:24;;;;;;;29.15;16.50;;;10.50;99.90;;;;;;5110968;28;20032;-70
2024/03/28 08:51:50;;;;;;;25.58;15.65;;;10.60;99.90;;;;;;5112440;28;20461;-71
2024/03/28 08:54:16;;;;;;;28.45;15.18;;;10.80;99.90;;;;;;5111809;28;20035;-71
2024/03/28 08:56:42;;;;;;;22.90;13.70;;;11.00;99.90;;;;;;5112245;28;20082;-71
2024/03/28 08:59:07;;;;;;;26.80;16.15;;;11.10;99.90;;;;;;5112236;28;20074;-71
2024/03/28 09:01:34;;;;;;;27.70;14.93;;;11.30;99.90;;;;;;5111165;28;20100;-71
2024/03/28 09:04:01;;;;;;;30.70;15.20;;;11.40;99.90;;;;;;5101273;28;20032;-72
2024/03/28 09:06:27;;;;;;;25.92;14.82;;;11.20;99.90;;;;;;5090604;28;20032;-71
2024/03/28 09:08:52;;;;;;;22.27;14.27;;;11.30;99.90;;;;;;5091796;28;20028;-71
2024/03/28 09:11:18;;;;;;;21.77;12.88;;;11.50;99.90;;;;;;5091391;28;20068;-71
2024/03/28 09:13:44;;;;;;;23.60;14.48;;;11.40;99.90;;;;;;5089995;28;20082;-71
2024/03/28 09:16:09;;;;;;;21.25;13.15;;;11.30;99.90;;;;;;5092065;28;20101;-71
2024/03/28 09:18:35;;;;;;;24.27;13.98;;;11.30;99.90;;;;;;5090362;28;20400;-70
2024/03/28 09:21:08;;;;;;;20.73;14.25;;;11.30;99.90;;;;;;5096164;28;20040;-71
2024/03/28 09:23:34;;;;;;;21.38;13.52;;;11.10;99.90;;;;;;5101886;28;20058;-71
2024/03/28 09:25:59;;;;;;;24.95;13.45;;;11.20;99.90;;;;;;5091572;28;20036;-71
2024/03/28 09:28:26;;;;;;;22.50;14.48;;;11.20;99.90;;;;;;5091442;28;20142;-70
2024/03/28 09:30:52;;;;;;;24.17;13.70;;;11.20;99.90;;;;;;5090305;28;20555;-71
2024/03/28 09:33:17;;;;;;;18.02;11.55;;;11.20;99.90;;;;;;5090018;28;20046;-71
2024/03/28 09:35:44;;;;;;;19.80;10.32;;;11.30;99.90;;;;;;5091497;28;20127;-71
2024/03/28 09:38:10;;;;;;;16.45;10.07;;;11.30;99.90;;;;;;5090416;28;20046;-70
2024/03/28 09:40:45;;;;;;;16.80;10.75;;;11.30;99.90;;;;;;5090915;28;20514;-71
2024/03/28 09:43:11;;;;;;;19.65;10.63;;;11.50;99.90;;;;;;5091230;28;20043;-70
2024/03/28 09:45:36;;;;;;;18.98;10.48;;;11.70;99.90;;;;;;5091205;28;20036;-71
2024/03/28 09:48:02;;;;;;;19.23;10.90;;;11.80;99.90;;;;;;5091290;28;20553;-70
2024/03/28 09:50:29;;;;;;;15.15;10.20;;;12.10;99.90;;;;;;5091086;28;20079;-71
2024/03/28 09:52:58;;;;;;;14.30;9.27;;;12.30;99.90;;;;;;5091284;28;20040;-71
2024/03/28 09:55:25;;;;;;;15.82;9.68;;;12.40;99.90;;;;;;5099108;28;21307;-71
2024/03/28 09:57:50;;;;;;;13.63;9.65;;;12.50;99.90;;;;;;5115210;28;20440;-70
2024/03/28 10:00:16;;;;;;;12.88;8.52;;;12.60;99.90;;;;;;5115133;28;20114;-71
2024/03/28 10:02:49;;;;;;;13.93;8.75;;;12.60;99.90;;;;;;5114930;28;20040;-71
2024/03/28 10:05:15;;;;;;;12.68;8.60;;;12.70;99.90;;;;;;5115599;28;20031;-71
2024/03/28 10:07:41;;;;;;;14.88;8.93;;;12.90;99.90;;;;;;5115346;28;20035;-72
2024/03/28 10:10:12;;;;;;;11.48;8.35;;;13.10;99.90;;;;;;5115024;28;20039;-71
2024/03/28 10:12:38;;;;;;;10.27;6.32;;;13.10;99.90;;;;;;5115152;28;20079;-71
2024/03/28 10:15:05;;;;;;;9.70;6.80;;;13.00;99.90;;;;;;5115264;27;20035;-71
2024/03/28 10:17:31;;;;;;;7.53;5.45;;;13.00;99.90;;;;;;5115299;28;20114;-71
2024/03/28 10:20:01;;;;;;;9.23;6.22;;;12.90;99.90;;;;;;5114829;28;20043;-71
2024/03/28 10:22:27;;;;;;;7.90;5.95;;;12.80;99.90;;;;;;5114527;27;20043;-71
2024/03/28 10:24:52;;;;;;;9.77;6.45;;;12.90;99.90;;;;;;5114753;28;20514;-71
2024/03/28 10:27:21;;;;;;;9.25;6.00;;;13.10;99.90;;;;;;5110790;28;20123;-71
2024/03/28 10:29:55;;;;;;;7.63;6.03;;;13.10;99.90;;;;;;5112637;28;20036;-71
2024/03/28 10:32:23;;;;;;;8.27;6.00;;;13.20;99.90;;;;;;5114481;28;20028;-71
2024/03/28 10:34:50;;;;;;;6.82;5.38;;;13.10;99.90;;;;;;5114754;27;20039;-71
2024/03/28 10:37:20;;;;;;;8.68;5.90;;;13.00;99.90;;;;;;5115074;28;20066;-71
2024/03/28 10:39:49;;;;;;;7.57;5.93;;;13.00;99.90;;;;;;5114634;28;20169;-71
2024/03/28 10:42:15;;;;;;;6.72;4.95;;;12.80;99.90;;;;;;5113255;28;20511;-71
2024/03/28 10:44:43;;;;;;;6.53;4.47;;;12.80;99.90;;;;;;5114711;28;20035;-71
2024/03/28 10:47:12;;;;;;;5.65;4.57;;;12.80;99.90;;;;;;5114617;28;20043;-70
2024/03/28 10:49:45;;;;;;;5.50;4.85;;;12.80;99.90;;;;;;5114201;28;20036;-71
2024/03/28 10:52:17;;;;;;;5.75;4.40;;;12.80;99.90;;;;;;5114439;27;20051;-72
2024/03/28 10:54:47;;;;;;;5.88;4.72;;;12.90;99.90;;;;;;5111169;28;20552;-71
2024/03/28 10:57:15;;;;;;;5.00;4.13;;;13.00;99.90;;;;;;5104157;28;20036;-71
2024/03/28 10:59:42;;;;;;;5.57;4.80;;;12.90;99.90;;;;;;5104256;28;20108;-71
2024/03/28 11:02:14;;;;;;;6.05;4.55;;;13.00;99.90;;;;;;5102660;28;20036;-71
2024/03/28 11:04:41;;;;;;;7.07;5.00;;;13.00;99.90;;;;;;5113746;28;20027;-71
2024/03/28 11:07:07;;;;;;;6.32;4.75;;;12.80;99.90;;;;;;5114088;28;20036;-71
2024/03/28 11:09:33;;;;;;;4.85;3.80;;;12.80;99.90;;;;;;5114062;28;20085;-71
2024/03/28 11:11:59;;;;;;;5.95;4.22;;;12.60;99.90;;;;;;5114299;28;20667;-71
2024/03/28 11:14:25;;;;;;;8.38;4.45;;;12.50;99.90;;;;;;5113649;28;20035;-70
2024/03/28 11:17:01;;;;;;;5.88;3.80;;;12.40;99.90;;;;;;5111495;28;20670;-70
2024/03/28 11:19:27;;;;;;;4.22;3.20;;;12.10;99.90;;;;;;5112766;28;20036;-70
2024/03/28 11:21:54;;;;;;;5.07;3.30;;;12.00;99.90;;;;;;5114044;28;20040;-70
2024/03/28 11:24:20;;;;;;;3.63;3.30;;;11.80;99.90;;;;;;5112220;28;20081;-70
2024/03/28 11:26:53;;;;;;;4.88;4.07;;;11.70;99.90;;;;;;5112700;28;20066;-70
2024/03/28 11:29:26;;;;;;;4.05;3.65;;;11.60;99.90;;;;;;5113720;28;20110;-71
2024/03/28 11:31:59;;;;;;;3.75;3.13;;;11.50;99.90;;;;;;5112513;28;20039;-70
2024/03/28 11:34:26;;;;;;;4.78;2.90;;;11.30;99.90;;;;;;5112360;28;20071;-71
2024/03/28 11:36:53;;;;;;;4.38;3.45;;;11.20;99.90;;;;;;5113752;28;20077;-70
2024/03/28 11:39:19;;;;;;;3.72;2.90;;;11.10;99.90;;;;;;5137461;22;20152;-76
2024/03/28 11:41:45;;;;;;;5.18;2.88;;;10.90;99.90;;;;;;5071033;28;20132;-75
2024/03/28 11:44:10;;;;;;;3.10;2.55;;;10.70;99.90;;;;;;5054743;28;20120;-74
2024/03/28 11:46:36;;;;;;;4.43;2.28;;;10.50;99.90;;;;;;5055021;28;20040;-74
2024/03/28 11:49:02;;;;;;;2.33;1.60;;;10.30;99.90;;;;;;5054996;28;20036;-74
2024/03/28 11:51:28;;;;;;;1.90;1.55;;;10.20;99.90;;;;;;5072451;28;20044;-75
2024/03/28 11:53:55;;;;;;;2.50;1.40;;;9.90;99.90;;;;;;5071358;28;20412;-74
2024/03/28 11:56:23;;;;;;;3.10;1.92;;;9.80;99.90;;;;;;5072327;28;20613;-74
2024/03/28 11:58:49;;;;;;;1.33;0.93;;;9.60;99.90;;;;;;5054728;28;20051;-74
2024/03/28 12:01:18;;;;;;;1.67;1.10;;;9.40;99.90;;;;;;5054143;28;20040;-75
2024/03/28 12:03:45;;;;;;;2.97;1.20;;;9.30;99.90;;;;;;5071035;28;20046;-75
2024/03/28 12:06:11;;;;;;;2.47;1.10;;;9.10;99.90;;;;;;5054616;28;20041;-76
2024/03/28 12:08:38;;;;;;;1.17;0.95;;;9.00;99.90;;;;;;5054341;28;20043;-75
2024/03/28 12:11:06;;;;;;;1.15;1.00;;;8.90;99.90;;;;;;5054039;28;20455;-76
2024/03/28 12:13:33;;;;;;;1.77;1.27;;;8.80;99.90;;;;;;5054102;28;20071;-76
2024/03/28 12:16:01;;;;;;;1.75;1.20;;;8.60;99.90;;;;;;5054096;28;20060;-76
2024/03/28 12:18:27;;;;;;;2.15;1.40;;;8.60;99.90;;;;;;5053630;28;20093;-76
2024/03/28 12:21:05;;;;;;;4.10;2.90;;;8.50;99.90;;;;;;5071738;28;20055;-76
2024/03/28 12:23:33;;;;;;;3.22;1.95;;;8.40;99.90;;;;;;5054093;28;20079;-76
2024/03/28 12:25:59;;;;;;;2.97;1.80;;;8.40;99.90;;;;;;5054090;28;20076;-76
2024/03/28 12:28:25;;;;;;;3.08;1.58;;;8.40;99.90;;;;;;5054552;28;20154;-76
2024/03/28 12:30:52;;;;;;;2.17;1.73;;;8.40;99.90;;;;;;5053669;28;20544;-76
2024/03/28 12:33:18;;;;;;;2.38;1.48;;;8.40;99.90;;;;;;5053721;28;20048;-76
2024/03/28 12:35:44;;;;;;;4.10;1.83;;;8.30;99.90;;;;;;5070056;28;20040;-76
2024/03/28 12:38:14;;;;;;;3.00;1.58;;;8.30;99.90;;;;;;5054070;28;20523;-75
2024/03/28 12:40:44;;;;;;;1.55;1.20;;;8.40;99.90;;;;;;5052771;28;20055;-76
2024/03/28 12:43:19;;;;;;;1.80;1.25;;;8.40;99.90;;;;;;5052964;28;20159;-76